LL42 weather

St James Hospital Heliport
Pontiac, Illinois, United States

Public forecast

Using degrees Fahrenheit for public forecast. Weather courtesy of forecast.io.

METAR (pilot weather report)

Closest report is Pontiac Municipal Airport, 4.1 nm (7.6 km) NE. Retrieved 2019/08/23 02:35 UTC (0 seconds ago):

KPNT 230235Z AUTO 05006KT 10SM CLR 19/13 A3005 RMK AO2 T01920132

TAF (pilot weather forecast)

Forecast is more than 12 hours old.

Closest forecast is Central Illinois Regional Airport at Bloomington-Normal, 26.0 nm (48.1 km) SSW. Retrieved 2019/08/22 00:24 UTC (1 day ago):

TAF KBMI 222321Z 2300/2324 VRB05KT P6SM SCT200 FM231600 06012KT P6SM FEW045 SCT200